Time;durP1;ratioP1;P1;durP2;ratioP2;P2;SDS_P1;SDS_P2;PMS_P1;PMS_P2;Temp;Humidity;BMP_temperature;BMP_pressure;BME280_temperature;BME280_humidity;BME280_pressure;Samples;Min_cycle;Max_cycle;Signal;HPM_P1;HPM_P2
2023/08/07 00:00:41;;;;;;;11.07;7.95;;;15.20;99.90;;;;;;5033538;28;20417;-79
2023/08/07 00:03:07;;;;;;;12.38;7.65;;;;;;;;;;5022066;28;20499;-78
2023/08/07 00:05:33;;;;;;;11.88;7.72;;;15.20;99.90;;;;;;5026101;28;20425;-78
2023/08/07 00:07:59;;;;;;;10.88;7.78;;;15.30;99.90;;;;;;5046895;28;20430;-77
2023/08/07 00:10:24;;;;;;;10.25;7.47;;;15.30;99.90;;;;;;5068184;28;20416;-79
2023/08/07 00:12:50;;;;;;;11.57;7.87;;;15.30;99.90;;;;;;5033262;28;20456;-79
2023/08/07 00:15:16;;;;;;;15.73;6.80;;;15.30;99.90;;;;;;5049460;28;20412;-78
2023/08/07 00:17:42;;;;;;;12.23;7.68;;;15.10;99.90;;;;;;5031189;28;20423;-79
2023/08/07 00:20:08;;;;;;;12.70;7.53;;;14.80;99.90;;;;;;5019354;28;20420;-79
2023/08/07 00:22:33;;;;;;;10.63;7.28;;;15.10;99.90;;;;;;5053140;28;20429;-79
2023/08/07 00:24:59;;;;;;;8.82;6.72;;;15.10;99.90;;;;;;5024182;28;20430;-79
2023/08/07 00:27:25;;;;;;;10.55;6.90;;;15.00;99.90;;;;;;5040942;28;20410;-79
2023/08/07 00:29:51;;;;;;;11.23;6.55;;;14.80;99.90;;;;;;5064640;28;20443;-79
2023/08/07 00:32:17;;;;;;;11.35;6.70;;;14.70;99.90;;;;;;5037069;28;20427;-79
2023/08/07 00:34:43;;;;;;;10.05;6.00;;;14.60;99.90;;;;;;5052182;28;20413;-79
2023/08/07 00:37:08;;;;;;;8.80;6.10;;;14.90;99.90;;;;;;5035833;28;20511;-79
2023/08/07 00:39:34;;;;;;;10.90;6.25;;;15.00;99.90;;;;;;5037162;28;20405;-79
2023/08/07 00:42:00;;;;;;;8.73;5.87;;;14.70;99.90;;;;;;5038907;28;20419;-79
2023/08/07 00:44:26;;;;;;;8.07;5.77;;;;;;;;;;5054972;28;20427;-79
2023/08/07 00:46:52;;;;;;;9.67;5.80;;;14.80;99.90;;;;;;5039118;28;20427;-79
2023/08/07 00:49:19;;;;;;;8.55;5.45;;;14.80;99.90;;;;;;5051810;28;20773;-78
2023/08/07 00:51:45;;;;;;;7.40;5.45;;;14.60;99.90;;;;;;5053157;28;20903;-78
2023/08/07 00:54:18;;;;;;;7.18;5.30;;;14.70;99.90;;;;;;5055093;28;20422;-77
2023/08/07 00:56:43;;;;;;;9.47;5.00;;;14.60;99.90;;;;;;5051373;28;20441;-78
2023/08/07 00:59:09;;;;;;;9.20;4.70;;;14.70;99.90;;;;;;5042420;28;20892;-78
2023/08/07 01:01:36;;;;;;;7.13;4.50;;;14.60;99.90;;;;;;5052199;28;20932;-78
2023/08/07 01:04:02;;;;;;;8.90;4.13;;;14.80;99.90;;;;;;5029359;28;20416;-79
2023/08/07 01:06:27;;;;;;;9.82;3.90;;;14.90;99.90;;;;;;5069212;28;20423;-78
2023/08/07 01:08:53;;;;;;;11.23;4.13;;;14.70;99.90;;;;;;5056311;28;20787;-78
2023/08/07 01:11:48;;;;;;;6.22;3.33;;;14.80;99.90;;;;;;5036704;28;20956;-78
2023/08/07 01:14:30;;;;;;;7.50;3.17;;;14.70;99.90;;;;;;5048703;28;20452;-78
2023/08/07 01:17:10;;;;;;;11.18;3.40;;;14.80;99.90;;;;;;5048297;28;20460;-79
2023/08/07 01:19:36;;;;;;;10.20;3.67;;;14.70;99.90;;;;;;5052268;28;20419;-78
2023/08/07 01:22:12;;;;;;;11.88;3.60;;;14.60;99.90;;;;;;5048310;28;20417;-80
2023/08/07 01:24:39;;;;;;;16.90;4.32;;;14.80;99.90;;;;;;5032585;28;20421;-79
2023/08/07 01:27:18;;;;;;;14.07;3.95;;;15.00;99.90;;;;;;5037456;28;20423;-80
2023/08/07 01:30:09;;;;;;;16.23;3.72;;;14.80;99.90;;;;;;5053207;28;20426;-79
2023/08/07 01:32:58;;;;;;;18.27;3.90;;;14.80;99.90;;;;;;5035692;28;20415;-78
2023/08/07 01:35:29;;;;;;;14.02;3.63;;;14.90;99.90;;;;;;5053263;28;20471;-78
2023/08/07 01:37:56;;;;;;;13.43;3.92;;;;;;;;;;5051515;28;20508;-79
2023/08/07 01:40:22;;;;;;;17.38;3.75;;;14.70;99.90;;;;;;5035823;28;20401;-78
2023/08/07 01:42:49;;;;;;;15.63;4.07;;;14.60;99.90;;;;;;5048576;28;20496;-75
2023/08/07 01:45:25;;;;;;;15.75;3.88;;;14.60;99.90;;;;;;5034746;28;20484;-78
2023/08/07 01:47:52;;;;;;;14.35;3.70;;;;;;;;;;5042444;28;20765;-79
2023/08/07 01:50:19;;;;;;;13.13;3.47;;;14.60;99.90;;;;;;5052173;28;20834;-79
2023/08/07 01:52:45;;;;;;;14.38;3.35;;;14.60;99.90;;;;;;5006787;28;20752;-79
2023/08/07 01:55:10;;;;;;;13.02;3.75;;;14.60;99.90;;;;;;5036224;28;20415;-79
2023/08/07 01:57:36;;;;;;;15.18;3.72;;;14.60;99.90;;;;;;5036855;28;20409;-78
2023/08/07 02:00:03;;;;;;;15.43;3.78;;;14.60;99.90;;;;;;5035946;28;20412;-79
2023/08/07 02:02:29;;;;;;;13.95;3.42;;;14.40;99.90;;;;;;5019373;28;20933;-78
2023/08/07 02:04:55;;;;;;;16.80;3.88;;;14.40;99.90;;;;;;5020986;28;20411;-79
2023/08/07 02:07:20;;;;;;;17.88;3.85;;;14.30;99.90;;;;;;5035222;28;20820;-78
2023/08/07 02:09:46;;;;;;;12.52;3.67;;;14.30;99.90;;;;;;5025974;28;20429;-77
2023/08/07 02:12:12;;;;;;;14.57;3.70;;;14.40;99.90;;;;;;5033649;28;20473;-78
2023/08/07 02:14:37;;;;;;;12.37;3.60;;;14.20;99.90;;;;;;5021209;28;20473;-78
2023/08/07 02:17:03;;;;;;;20.10;3.97;;;14.50;99.90;;;;;;5053950;28;20891;-79
2023/08/07 02:19:30;;;;;;;16.20;4.03;;;14.50;99.90;;;;;;5030316;28;20416;-78
2023/08/07 02:21:56;;;;;;;14.57;4.38;;;14.20;99.90;;;;;;5040748;28;20423;-78
2023/08/07 02:24:21;;;;;;;16.63;4.10;;;14.30;99.90;;;;;;5026244;28;20509;-78
2023/08/07 02:26:47;;;;;;;13.83;3.87;;;14.20;99.90;;;;;;5018959;28;20428;-79
2023/08/07 02:29:13;;;;;;;14.37;3.70;;;14.20;99.90;;;;;;5044578;28;20439;-77
2023/08/07 02:31:38;;;;;;;18.65;4.18;;;14.20;99.90;;;;;;5027323;28;20427;-78
2023/08/07 02:34:04;;;;;;;15.23;4.43;;;14.30;99.90;;;;;;5021078;28;20394;-77
2023/08/07 02:36:30;;;;;;;14.97;4.00;;;;;;;;;;5035413;28;20492;-77
2023/08/07 02:38:56;;;;;;;13.55;4.10;;;14.10;99.90;;;;;;5037267;28;20420;-78
2023/08/07 02:41:21;;;;;;;16.53;4.13;;;14.20;99.90;;;;;;5050252;28;20429;-78
2023/08/07 02:43:47;;;;;;;18.00;4.07;;;14.10;99.90;;;;;;5023172;28;20920;-78
2023/08/07 02:46:13;;;;;;;15.57;4.03;;;14.00;99.90;;;;;;5035319;28;20409;-79
2023/08/07 02:48:39;;;;;;;13.02;3.70;;;14.00;99.90;;;;;;5034101;28;20495;-78
2023/08/07 02:51:06;;;;;;;13.88;3.90;;;14.00;99.90;;;;;;5039132;28;20502;-78
2023/08/07 02:53:32;;;;;;;15.18;4.10;;;14.00;99.90;;;;;;5033390;28;20561;-77
2023/08/07 02:55:57;;;;;;;13.00;3.90;;;14.10;99.90;;;;;;5036023;28;20966;-77
2023/08/07 02:58:23;;;;;;;13.05;3.78;;;;;;;;;;5055693;28;20395;-79
2023/08/07 03:00:49;;;;;;;15.38;3.83;;;14.10;99.90;;;;;;5048104;28;20428;-79
2023/08/07 03:03:15;;;;;;;13.43;4.00;;;14.20;99.90;;;;;;5052597;28;20758;-78
2023/08/07 03:05:48;;;;;;;14.27;3.90;;;14.30;99.90;;;;;;5035685;28;20431;-80
2023/08/07 03:08:14;;;;;;;21.33;5.00;;;14.20;99.90;;;;;;5058910;28;20426;-80
2023/08/07 03:10:40;;;;;;;17.50;4.43;;;14.20;99.90;;;;;;5032606;28;20413;-81
2023/08/07 03:13:06;;;;;;;15.77;4.43;;;;;;;;;;5022983;28;20427;-81
2023/08/07 03:15:31;;;;;;;14.95;4.43;;;14.30;99.90;;;;;;5034061;28;20541;-81
2023/08/07 03:17:57;;;;;;;18.03;5.10;;;14.30;99.90;;;;;;5034884;28;20976;-80
2023/08/07 03:20:23;;;;;;;17.15;4.82;;;14.10;99.90;;;;;;5027937;28;20475;-79
2023/08/07 03:22:49;;;;;;;16.17;4.70;;;14.40;99.90;;;;;;5018188;28;20417;-79
2023/08/07 03:25:15;;;;;;;18.80;5.15;;;14.30;99.90;;;;;;5020709;28;20763;-78
2023/08/07 03:27:41;;;;;;;14.63;4.93;;;;;;;;;;5053845;28;20468;-78
2023/08/07 03:30:07;;;;;;;14.25;5.18;;;14.40;99.90;;;;;;5014497;28;20418;-79
2023/08/07 03:32:32;;;;;;;23.88;5.20;;;14.30;99.90;;;;;;5051755;28;20429;-79
2023/08/07 03:34:58;;;;;;;17.58;4.78;;;14.30;99.90;;;;;;5011781;28;20428;-79
2023/08/07 03:37:24;;;;;;;15.47;4.63;;;14.30;99.90;;;;;;5002025;28;20397;-79
2023/08/07 03:39:50;;;;;;;17.85;4.60;;;14.30;99.90;;;;;;5035035;28;20417;-79
2023/08/07 03:42:16;;;;;;;15.25;4.60;;;;;;;;;;5025546;28;20952;-79
2023/08/07 03:44:42;;;;;;;16.75;4.80;;;14.40;99.90;;;;;;5047041;28;20425;-79
2023/08/07 03:47:08;;;;;;;17.23;4.70;;;;;;;;;;5028376;28;20422;-79
2023/08/07 03:49:34;;;;;;;20.08;5.38;;;14.20;99.90;;;;;;5036845;28;20424;-80
2023/08/07 03:51:59;;;;;;;14.77;4.60;;;14.50;99.90;;;;;;5037199;28;20468;-80
2023/08/07 03:54:26;;;;;;;15.25;5.03;;;;;;;;;;5035981;28;20412;-77
2023/08/07 03:56:51;;;;;;;17.52;5.10;;;14.70;99.90;;;;;;5023574;28;20443;-76
2023/08/07 03:59:17;;;;;;;17.90;5.38;;;14.60;99.90;;;;;;5049262;28;20427;-79
2023/08/07 04:01:43;;;;;;;16.75;5.25;;;14.40;99.90;;;;;;5018645;28;20512;-78
2023/08/07 04:04:09;;;;;;;15.82;4.95;;;14.40;99.90;;;;;;5037980;28;20437;-80
2023/08/07 04:06:34;;;;;;;15.27;4.78;;;14.60;99.90;;;;;;5037963;28;20405;-80
2023/08/07 04:09:03;;;;;;;22.67;5.20;;;14.70;99.90;;;;;;5029323;28;20431;-79
2023/08/07 04:11:29;;;;;;;15.27;5.00;;;14.70;99.90;;;;;;5032570;28;20415;-80
2023/08/07 04:13:55;;;;;;;16.42;5.00;;;14.50;99.90;;;;;;5028110;28;20931;-80
2023/08/07 04:16:21;;;;;;;15.03;4.83;;;14.50;99.90;;;;;;5046130;28;20499;-80
2023/08/07 04:18:47;;;;;;;19.80;4.28;;;14.90;99.90;;;;;;5041513;28;20399;-80
2023/08/07 04:21:13;;;;;;;18.63;4.53;;;;;;;;;;5048346;28;20486;-80
2023/08/07 04:23:39;;;;;;;18.73;4.35;;;14.60;99.90;;;;;;5040964;28;20399;-80
2023/08/07 04:26:04;;;;;;;14.27;4.65;;;14.90;99.90;;;;;;5049676;28;20416;-80
2023/08/07 04:28:30;;;;;;;19.65;4.25;;;14.70;99.90;;;;;;5030242;28;20415;-80
2023/08/07 04:30:56;;;;;;;13.67;4.17;;;14.80;99.90;;;;;;5023262;28;20403;-80
2023/08/07 04:33:21;;;;;;;18.33;4.20;;;14.80;99.90;;;;;;5054057;28;20429;-79
2023/08/07 04:35:48;;;;;;;21.58;5.07;;;14.90;99.90;;;;;;5049010;28;20406;-79
2023/08/07 04:38:14;;;;;;;12.57;3.55;;;14.90;99.90;;;;;;5037517;28;20418;-80
2023/08/07 04:40:47;;;;;;;14.70;4.22;;;14.90;99.90;;;;;;5052802;28;20413;-80
2023/08/07 04:43:17;;;;;;;12.48;3.83;;;15.00;99.90;;;;;;5049010;28;20432;-80
2023/08/07 04:45:44;;;;;;;9.82;3.20;;;14.90;99.90;;;;;;5031928;28;20428;-80
2023/08/07 04:48:11;;;;;;;8.77;2.80;;;;;;;;;;5048019;28;20944;-80
2023/08/07 04:50:38;;;;;;;8.80;3.03;;;14.60;99.90;;;;;;5045540;28;20516;-80
2023/08/07 04:53:06;;;;;;;10.05;3.58;;;14.40;99.90;;;;;;5020430;28;20475;-81
2023/08/07 04:55:32;;;;;;;9.52;3.25;;;14.20;99.90;;;;;;5038742;28;20760;-81
2023/08/07 04:57:58;;;;;;;9.07;3.47;;;14.20;99.90;;;;;;5053675;28;20409;-81
2023/08/07 05:00:24;;;;;;;10.43;3.40;;;14.20;99.90;;;;;;5037089;28;20967;-80
2023/08/07 05:02:50;;;;;;;10.38;4.00;;;;;;;;;;5004721;28;20466;-80
2023/08/07 05:05:20;;;;;;;12.80;4.53;;;14.00;99.90;;;;;;5036129;28;20418;-81
2023/08/07 05:07:46;;;;;;;13.23;4.20;;;;;;;;;;5029201;28;20496;-79
2023/08/07 05:10:12;;;;;;;17.95;4.97;;;14.40;99.90;;;;;;5036508;28;20496;-80
2023/08/07 05:12:38;;;;;;;15.13;4.80;;;14.30;99.90;;;;;;5037363;28;20456;-80
2023/08/07 05:15:04;;;;;;;14.20;4.77;;;14.40;99.90;;;;;;5034310;28;20415;-80
2023/08/07 05:17:31;;;;;;;15.93;5.18;;;14.20;99.90;;;;;;5041805;28;20482;-79
2023/08/07 05:19:57;;;;;;;18.50;5.38;;;14.50;99.90;;;;;;5019224;28;20429;-79
2023/08/07 05:22:23;;;;;;;18.80;5.85;;;14.40;99.90;;;;;;5027162;28;20440;-79
2023/08/07 05:24:49;;;;;;;17.33;4.90;;;14.40;99.90;;;;;;5055274;28;20446;-79
2023/08/07 05:27:15;;;;;;;17.90;5.30;;;;;;;;;;5035717;28;20433;-79
2023/08/07 05:29:43;;;;;;;21.15;5.38;;;14.30;99.90;;;;;;5049817;28;20436;-79
2023/08/07 05:32:11;;;;;;;19.98;5.70;;;14.40;99.90;;;;;;5041303;28;20419;-79
2023/08/07 05:34:37;;;;;;;19.70;5.70;;;14.50;99.90;;;;;;5044238;28;20423;-78
2023/08/07 05:37:03;;;;;;;16.90;5.17;;;14.30;99.90;;;;;;5054827;28;20403;-79
2023/08/07 05:39:28;;;;;;;19.83;5.40;;;14.40;99.90;;;;;;5053648;28;20431;-79
2023/08/07 05:41:57;;;;;;;18.00;5.13;;;14.70;99.90;;;;;;5054315;28;20458;-79
2023/08/07 05:44:23;;;;;;;16.45;4.80;;;14.50;99.90;;;;;;5021195;28;20927;-80
2023/08/07 05:46:49;;;;;;;19.92;5.30;;;14.50;99.90;;;;;;5035628;28;20476;-79
2023/08/07 05:49:15;;;;;;;20.30;5.37;;;14.60;99.90;;;;;;5006720;28;20454;-80
2023/08/07 05:51:41;;;;;;;16.27;4.75;;;14.70;99.90;;;;;;5016568;28;20420;-80
2023/08/07 05:54:07;;;;;;;18.57;4.87;;;14.80;99.90;;;;;;5039298;28;20428;-80
2023/08/07 05:56:33;;;;;;;18.33;4.97;;;15.00;99.90;;;;;;5052428;28;20424;-80
2023/08/07 05:58:58;;;;;;;18.90;5.00;;;14.90;99.90;;;;;;5039920;28;20456;-78
2023/08/07 06:01:30;;;;;;;18.33;5.17;;;14.80;99.90;;;;;;5044583;28;20423;-82
2023/08/07 06:04:00;;;;;;;19.73;5.30;;;15.00;99.90;;;;;;5047156;28;20952;-80
2023/08/07 06:06:28;;;;;;;14.25;4.55;;;14.60;99.90;;;;;;5039489;28;20905;-80
2023/08/07 06:08:56;;;;;;;14.20;4.65;;;14.40;99.90;;;;;;5050765;28;20426;-80
2023/08/07 06:11:22;;;;;;;16.77;5.03;;;14.40;99.90;;;;;;5046845;28;20453;-81
2023/08/07 06:13:49;;;;;;;15.40;4.47;;;14.30;99.90;;;;;;5034431;28;20913;-80
2023/08/07 06:16:15;;;;;;;12.50;4.40;;;;;;;;;;5020547;28;20715;-81
2023/08/07 06:18:41;;;;;;;14.82;4.38;;;14.20;99.90;;;;;;5053893;28;20462;-81
2023/08/07 06:21:07;;;;;;;14.33;4.20;;;;;;;;;;5022015;28;20422;-80
2023/08/07 06:23:33;;;;;;;13.50;4.05;;;14.40;99.90;;;;;;5046472;28;20456;-80
2023/08/07 06:26:03;;;;;;;13.02;4.22;;;14.20;99.90;;;;;;5051809;28;20416;-79
2023/08/07 06:28:33;;;;;;;15.07;4.33;;;14.50;99.90;;;;;;5038359;28;20442;-81
2023/08/07 06:31:06;;;;;;;16.33;4.50;;;;;;;;;;5038992;28;20416;-80
2023/08/07 06:33:33;;;;;;;14.15;4.22;;;14.50;99.90;;;;;;5045513;28;20516;-81
2023/08/07 06:35:59;;;;;;;17.05;4.22;;;;;;;;;;5053314;28;20460;-80
2023/08/07 06:38:25;;;;;;;16.27;4.60;;;;;;;;;;5055860;28;20522;-80
2023/08/07 06:40:51;;;;;;;13.20;4.43;;;;;;;;;;5049909;28;20930;-80
2023/08/07 06:43:17;;;;;;;19.15;4.28;;;;;;;;;;5024518;28;20905;-81
2023/08/07 06:45:46;;;;;;;18.55;4.70;;;14.50;99.90;;;;;;5030729;28;20432;-80
2023/08/07 06:48:12;;;;;;;13.55;3.70;;;14.70;99.90;;;;;;5041599;28;20433;-80
2023/08/07 06:50:38;;;;;;;9.87;3.43;;;;;;;;;;5003198;28;20483;-79
2023/08/07 06:53:04;;;;;;;11.77;3.28;;;;;;;;;;5052888;28;20770;-81
2023/08/07 06:55:30;;;;;;;15.07;3.13;;;14.60;99.90;;;;;;5051130;28;20762;-80
2023/08/07 06:57:55;;;;;;;10.10;2.77;;;14.50;99.90;;;;;;5047699;28;20425;-81
2023/08/07 07:00:22;;;;;;;7.80;2.63;;;;;;;;;;5028550;28;21421;-80
2023/08/07 07:02:47;;;;;;;14.53;3.20;;;14.70;99.90;;;;;;5041105;28;20437;-80
2023/08/07 07:05:13;;;;;;;10.43;3.10;;;14.60;99.90;;;;;;5049986;28;20421;-81
2023/08/07 07:07:39;;;;;;;9.27;2.92;;;14.40;99.90;;;;;;5043718;28;20945;-80
2023/08/07 07:10:05;;;;;;;9.25;3.33;;;14.10;99.90;;;;;;5052741;28;20471;-80
2023/08/07 07:12:31;;;;;;;12.00;3.78;;;14.10;99.90;;;;;;5021271;28;20401;-80
2023/08/07 07:14:56;;;;;;;10.60;2.80;;;14.10;99.90;;;;;;5053400;28;20422;-80
2023/08/07 07:17:22;;;;;;;8.93;2.70;;;14.20;99.90;;;;;;5027965;28;20404;-79
2023/08/07 07:19:48;;;;;;;7.97;2.78;;;;;;;;;;5035482;28;20427;-80
2023/08/07 07:22:14;;;;;;;10.57;2.65;;;14.30;99.90;;;;;;5047618;28;20426;-81
2023/08/07 07:24:40;;;;;;;10.53;2.60;;;14.40;99.90;;;;;;5018646;28;20419;-81
2023/08/07 07:27:06;;;;;;;8.60;2.50;;;14.40;99.90;;;;;;5042840;28;20460;-80
2023/08/07 07:29:32;;;;;;;11.00;3.10;;;14.70;99.90;;;;;;5014425;28;21416;-81
2023/08/07 07:31:57;;;;;;;11.00;3.10;;;14.80;99.90;;;;;;5029731;28;20426;-79
2023/08/07 07:34:23;;;;;;;9.25;3.13;;;15.00;99.90;;;;;;5024762;28;20546;-80
2023/08/07 07:36:49;;;;;;;9.88;3.30;;;14.70;99.90;;;;;;4996471;28;20423;-80
2023/08/07 07:39:14;;;;;;;10.87;3.40;;;14.40;99.90;;;;;;5047686;28;20426;-79
2023/08/07 07:41:40;;;;;;;11.77;3.63;;;14.10;99.90;;;;;;5053853;28;20483;-78
2023/08/07 07:44:06;;;;;;;12.15;4.47;;;14.00;99.90;;;;;;5033182;28;20421;-78
2023/08/07 07:46:32;;;;;;;14.32;4.10;;;;;;;;;;5002168;28;20463;-80
2023/08/07 07:48:59;;;;;;;15.07;4.30;;;14.10;99.90;;;;;;5042083;28;20461;-79
2023/08/07 07:51:25;;;;;;;11.50;4.18;;;14.40;99.90;;;;;;5026693;28;20966;-78
2023/08/07 07:53:56;;;;;;;10.95;4.20;;;14.70;99.90;;;;;;5050537;28;20787;-79
2023/08/07 07:56:22;;;;;;;11.30;4.23;;;14.80;99.90;;;;;;5034693;28;20423;-79
2023/08/07 07:58:48;;;;;;;15.77;4.40;;;;;;;;;;4985742;28;20993;-78
2023/08/07 08:01:13;;;;;;;14.77;4.50;;;14.70;99.90;;;;;;5024648;28;20491;-77
2023/08/07 08:03:39;;;;;;;13.57;4.33;;;14.30;99.90;;;;;;5019726;28;20420;-78
2023/08/07 08:06:05;;;;;;;11.18;4.05;;;;;;;;;;5053350;28;20419;-79
2023/08/07 08:08:31;;;;;;;14.15;5.00;;;13.90;99.90;;;;;;5049097;28;20451;-79
2023/08/07 08:10:57;;;;;;;14.03;5.00;;;;;;;;;;5031516;28;20455;-80
2023/08/07 08:13:25;;;;;;;13.80;4.95;;;13.50;99.90;;;;;;5047519;28;20421;-80
2023/08/07 08:15:51;;;;;;;13.20;5.05;;;13.40;99.90;;;;;;5063192;28;20407;-79
2023/08/07 08:18:17;;;;;;;13.32;4.20;;;13.40;99.90;;;;;;5053601;28;20469;-80
2023/08/07 08:20:43;;;;;;;12.43;3.63;;;13.40;99.90;;;;;;5009080;28;20423;-79
2023/08/07 08:23:09;;;;;;;15.95;4.47;;;13.40;99.90;;;;;;5036339;28;20446;-80
2023/08/07 08:25:35;;;;;;;14.93;4.30;;;;;;;;;;5023716;28;20885;-79
2023/08/07 08:28:01;;;;;;;13.40;4.28;;;13.20;99.90;;;;;;5046815;28;20462;-81
2023/08/07 08:30:27;;;;;;;14.53;3.73;;;13.60;99.90;;;;;;5036939;28;20421;-80
2023/08/07 08:32:53;;;;;;;13.80;3.92;;;13.60;99.90;;;;;;5035724;28;20415;-81
2023/08/07 08:35:19;;;;;;;13.02;3.50;;;13.70;99.90;;;;;;5032014;28;20424;-81
2023/08/07 08:37:45;;;;;;;13.48;4.00;;;;;;;;;;5032482;28;20424;-81
2023/08/07 08:40:17;;;;;;;15.75;4.15;;;14.20;99.90;;;;;;5048098;28;20779;-81
2023/08/07 08:42:44;;;;;;;13.55;3.90;;;14.40;99.90;;;;;;5036973;28;20907;-81
2023/08/07 08:45:14;;;;;;;15.52;4.20;;;14.50;99.90;;;;;;5037703;28;20430;-79
2023/08/07 08:47:41;;;;;;;12.10;3.90;;;14.50;99.90;;;;;;5048952;28;20443;-80
2023/08/07 08:50:11;;;;;;;15.80;3.40;;;14.80;99.90;;;;;;5015780;28;20465;-80
2023/08/07 08:52:38;;;;;;;9.05;2.70;;;14.90;99.90;;;;;;5053234;28;20428;-80
2023/08/07 08:55:06;;;;;;;9.88;2.90;;;14.80;99.90;;;;;;5057881;28;20482;-80
2023/08/07 08:57:33;;;;;;;12.90;3.33;;;14.60;99.90;;;;;;5046616;28;20413;-86
2023/08/07 08:59:59;;;;;;;7.73;2.43;;;14.40;99.90;;;;;;5054279;28;20550;-87
2023/08/07 09:02:36;;;;;;;10.55;2.92;;;14.80;99.90;;;;;;5053157;28;20428;-89
2023/08/07 09:05:12;;;;;;;9.65;2.95;;;15.00;99.90;;;;;;5056027;28;20690;-88
2023/08/07 09:07:38;;;;;;;8.98;2.40;;;15.00;99.90;;;;;;5024207;28;20516;-88
2023/08/07 09:10:05;;;;;;;9.82;2.42;;;15.20;99.90;;;;;;5071582;28;20425;-87
2023/08/07 09:12:50;;;;;;;8.43;2.53;;;15.50;99.90;;;;;;5039134;28;20405;-86
2023/08/07 09:15:27;;;;;;;6.00;2.38;;;15.70;99.90;;;;;;5055368;28;20419;-86
2023/08/07 09:17:54;;;;;;;7.50;2.33;;;15.70;99.90;;;;;;5049270;28;20427;-85
2023/08/07 09:20:20;;;;;;;8.77;2.67;;;16.10;99.90;;;;;;5052803;28;20426;-87
2023/08/07 09:22:46;;;;;;;8.70;2.70;;;16.30;99.90;;;;;;5031352;28;20932;-87
2023/08/07 09:25:12;;;;;;;10.10;2.85;;;16.60;99.90;;;;;;5048197;28;20435;-86
2023/08/07 09:27:38;;;;;;;10.13;3.00;;;16.50;99.90;;;;;;5042527;28;20425;-86
2023/08/07 09:30:08;;;;;;;10.82;3.22;;;16.50;99.90;;;;;;5036196;28;20508;-85
2023/08/07 09:32:33;;;;;;;8.95;3.10;;;16.40;99.90;;;;;;5033956;28;20471;-85
2023/08/07 09:35:03;;;;;;;8.70;3.08;;;16.20;99.90;;;;;;5030481;28;20419;-85
2023/08/07 09:37:29;;;;;;;11.13;2.97;;;16.40;99.90;;;;;;5026820;28;20918;-85
2023/08/07 09:39:55;;;;;;;9.40;3.23;;;16.00;99.90;;;;;;5033154;28;20799;-85
2023/08/07 09:42:21;;;;;;;8.77;2.80;;;16.00;99.90;;;;;;5025030;28;20448;-85
2023/08/07 09:44:48;;;;;;;10.80;2.80;;;16.30;99.90;;;;;;5033763;28;20460;-85
2023/08/07 09:47:15;;;;;;;10.75;2.90;;;16.20;99.90;;;;;;5048114;28;20425;-84
2023/08/07 09:49:42;;;;;;;7.70;2.70;;;16.30;99.90;;;;;;5070722;28;20438;-85
2023/08/07 09:52:10;;;;;;;10.65;3.17;;;16.50;99.90;;;;;;5023446;28;20441;-85
2023/08/07 09:54:37;;;;;;;12.23;3.00;;;16.70;99.90;;;;;;5023114;28;20990;-84
2023/08/07 09:57:03;;;;;;;10.05;3.00;;;16.80;99.90;;;;;;5049499;28;20507;-85
2023/08/07 09:59:29;;;;;;;10.73;3.35;;;17.10;99.90;;;;;;5011015;28;20525;-85
2023/08/07 10:01:59;;;;;;;7.85;2.80;;;17.20;99.90;;;;;;5029174;28;21144;-86
2023/08/07 10:04:26;;;;;;;9.82;2.88;;;17.20;99.90;;;;;;5035391;28;20922;-85
2023/08/07 10:06:52;;;;;;;8.60;2.95;;;16.90;99.90;;;;;;5035514;28;20444;-85
2023/08/07 10:09:18;;;;;;;9.63;3.22;;;16.80;99.90;;;;;;5017120;28;20440;-85
2023/08/07 10:11:44;;;;;;;10.53;2.87;;;16.90;99.90;;;;;;5023016;28;20903;-84
2023/08/07 10:14:14;;;;;;;10.95;3.20;;;16.80;99.90;;;;;;5022355;28;20411;-85
2023/08/07 10:16:43;;;;;;;10.77;2.70;;;16.70;99.90;;;;;;5023224;28;20976;-84
2023/08/07 10:19:09;;;;;;;7.03;2.60;;;16.90;99.90;;;;;;5037028;28;20451;-85
2023/08/07 10:21:37;;;;;;;8.85;2.70;;;16.70;99.90;;;;;;5049012;28;20462;-85
2023/08/07 10:24:08;;;;;;;10.60;2.95;;;16.60;99.90;;;;;;5031740;28;20504;-84
2023/08/07 10:26:37;;;;;;;8.60;2.70;;;16.80;99.90;;;;;;5047883;28;20933;-86
2023/08/07 10:29:09;;;;;;;8.45;2.50;;;16.80;99.90;;;;;;5037795;28;20427;-84
2023/08/07 10:31:36;;;;;;;7.40;2.70;;;16.70;99.90;;;;;;5056098;28;20411;-84
2023/08/07 10:34:02;;;;;;;8.68;2.65;;;16.40;99.90;;;;;;5027510;28;20420;-84
2023/08/07 10:36:38;;;;;;;8.85;2.78;;;;;;;;;;5035328;28;20415;-82
2023/08/07 10:39:22;;;;;;;8.88;2.50;;;16.40;99.90;;;;;;5046979;28;20409;-84
2023/08/07 10:42:39;;;;;;;10.57;2.77;;;16.20;99.90;;;;;;5040966;28;20459;-84
2023/08/07 10:45:39;;;;;;;11.75;3.13;;;16.30;99.90;;;;;;5023322;28;20522;-84
2023/08/07 10:48:09;;;;;;;9.00;2.77;;;;;;;;;;5019588;28;20465;-84
2023/08/07 10:51:01;;;;;;;10.65;2.80;;;16.60;99.90;;;;;;5046383;28;20965;-86
2023/08/07 10:53:43;;;;;;;11.32;3.05;;;16.60;99.90;;;;;;5039724;28;20399;-86
2023/08/07 10:56:16;;;;;;;11.18;3.08;;;17.20;99.90;;;;;;5023858;28;20436;-86
2023/08/07 10:58:42;;;;;;;8.85;2.90;;;17.30;99.90;;;;;;5045746;28;20426;-84
2023/08/07 11:01:26;;;;;;;8.25;2.75;;;17.30;99.90;;;;;;5049207;28;20424;-85
2023/08/07 11:04:00;;;;;;;7.78;2.17;;;17.70;99.90;;;;;;5052834;28;20421;-85
2023/08/07 11:06:33;;;;;;;5.03;1.92;;;18.10;99.90;;;;;;5068302;28;20494;-86
2023/08/07 11:09:08;;;;;;;6.72;2.03;;;17.90;99.90;;;;;;5038583;28;20454;-86
2023/08/07 11:11:49;;;;;;;10.30;2.25;;;18.50;99.90;;;;;;5034887;28;20423;-85
2023/08/07 11:14:29;;;;;;;5.20;1.90;;;17.80;99.90;;;;;;5036058;28;20431;-85
2023/08/07 11:17:08;;;;;;;7.72;2.45;;;17.60;99.90;;;;;;5050255;28;20488;-86
2023/08/07 11:20:20;;;;;;;7.18;1.90;;;17.70;99.90;;;;;;5037281;28;20440;-85
2023/08/07 11:27:17;;;;;;;8.35;2.05;;;19.60;99.90;;;;;;5076097;28;20493;-86
2023/08/07 11:30:31;;;;;;;7.07;2.20;;;18.10;99.90;;;;;;5071207;28;20418;-86
2023/08/07 11:33:11;;;;;;;7.20;2.40;;;17.70;99.90;;;;;;5024826;28;20473;-84
2023/08/07 11:36:14;;;;;;;7.85;2.30;;;18.40;99.90;;;;;;5017266;28;20425;-84
2023/08/07 11:39:41;;;;;;;6.35;2.20;;;18.00;99.90;;;;;;5041659;28;20966;-85
2023/08/07 11:42:27;;;;;;;9.00;2.50;;;17.30;99.90;;;;;;5038546;28;20411;-84
2023/08/07 11:45:19;;;;;;;6.50;2.17;;;17.80;99.90;;;;;;5068895;28;20538;-84
2023/08/07 11:47:51;;;;;;;5.63;2.10;;;17.80;99.90;;;;;;4995823;28;20422;-84
2023/08/07 11:50:31;;;;;;;6.53;1.98;;;17.90;99.90;;;;;;5063250;28;20930;-85
2023/08/07 11:53:13;;;;;;;5.22;2.25;;;17.80;99.90;;;;;;5030845;28;21668;-85
2023/08/07 11:56:07;;;;;;;7.03;2.27;;;18.40;99.90;;;;;;5029427;28;20407;-86
2023/08/07 11:58:41;;;;;;;6.57;2.35;;;18.40;99.90;;;;;;5020794;28;20492;-85
2023/08/07 12:01:19;;;;;;;9.98;2.63;;;18.20;99.90;;;;;;5021999;28;20410;-86
2023/08/07 12:03:53;;;;;;;5.90;2.10;;;18.00;99.90;;;;;;5046998;28;20903;-86
2023/08/07 12:06:28;;;;;;;6.88;2.67;;;18.10;99.90;;;;;;5037114;28;20405;-82
2023/08/07 12:09:14;;;;;;;8.60;2.92;;;17.80;99.90;;;;;;5054437;28;20513;-82
2023/08/07 12:14:56;;;;;;;8.30;2.73;;;16.00;99.90;;;;;;5075364;28;20404;-82
2023/08/07 12:17:22;;;;;;;8.45;2.42;;;16.00;99.90;;;;;;5040864;28;20451;-81
2023/08/07 12:19:50;;;;;;;7.03;2.38;;;16.10;99.90;;;;;;5031991;28;20506;-79
2023/08/07 12:22:20;;;;;;;8.98;2.88;;;16.30;99.90;;;;;;5038974;28;20783;-82
2023/08/07 12:25:43;;;;;;;8.60;2.70;;;16.60;99.90;;;;;;5070259;28;20411;-83
2023/08/07 12:28:22;;;;;;;8.35;2.50;;;18.00;99.90;;;;;;4957327;28;20430;-83
2023/08/07 12:30:54;;;;;;;8.98;2.38;;;17.20;99.90;;;;;;5030884;28;20738;-82
2023/08/07 12:33:20;;;;;;;7.07;2.53;;;17.60;99.90;;;;;;5015953;28;20406;-83
2023/08/07 12:35:46;;;;;;;7.22;2.78;;;17.70;99.90;;;;;;5075937;28;20485;-82
2023/08/07 12:38:21;;;;;;;6.33;2.40;;;17.80;99.90;;;;;;5017910;28;20424;-83
2023/08/07 12:40:47;;;;;;;6.73;2.10;;;17.90;99.90;;;;;;5006344;28;20413;-84
2023/08/07 12:43:41;;;;;;;7.53;2.40;;;17.70;99.90;;;;;;5027496;28;20409;-82
2023/08/07 12:46:29;;;;;;;5.95;2.20;;;17.80;99.90;;;;;;5051422;28;20419;-82
2023/08/07 12:49:22;;;;;;;4.20;1.83;;;18.20;99.90;;;;;;5047017;28;20482;-82
2023/08/07 12:51:48;;;;;;;5.63;2.05;;;18.20;99.90;;;;;;5044111;28;20435;-83
2023/08/07 12:54:25;;;;;;;;;;;;;;;;;;;;;
2023/08/07 12:57:00;;;;;;;6.55;2.00;;;16.20;99.90;;;;;;5040520;28;20423;-83
2023/08/07 12:59:28;;;;;;;6.00;2.30;;;17.90;99.90;;;;;;5046334;28;20496;-83
2023/08/07 13:02:01;;;;;;;4.75;2.00;;;17.70;99.90;;;;;;5069254;28;20955;-82
2023/08/07 13:04:27;;;;;;;6.18;2.40;;;17.90;99.90;;;;;;5049210;28;20434;-82
2023/08/07 13:06:53;;;;;;;7.60;2.63;;;17.90;99.90;;;;;;5047093;28;20504;-81
2023/08/07 13:09:20;;;;;;;5.80;2.23;;;17.70;99.90;;;;;;5011998;28;20781;-82
2023/08/07 13:12:03;;;;;;;8.63;2.55;;;17.50;99.90;;;;;;5038933;28;20528;-82